sensor_id;sensor_type;location;lat;lon;timestamp;P1;durP1;ratioP1;P2;durP2;ratioP2
15913;SDS011;8055;51.930;8.840;2024-02-15T00:01:00;18.10;;;13.60;;
15913;SDS011;8055;51.930;8.840;2024-02-15T00:03:25;19.27;;;14.02;;
15913;SDS011;8055;51.930;8.840;2024-02-15T00:05:51;17.38;;;13.20;;
15913;SDS011;8055;51.930;8.840;2024-02-15T00:08:17;16.20;;;12.95;;
15913;SDS011;8055;51.930;8.840;2024-02-15T00:10:44;16.80;;;12.10;;
15913;SDS011;8055;51.930;8.840;2024-02-15T00:13:11;16.75;;;12.75;;
15913;SDS011;8055;51.930;8.840;2024-02-15T00:15:37;19.00;;;12.70;;
15913;SDS011;8055;51.930;8.840;2024-02-15T00:18:02;18.23;;;12.32;;
15913;SDS011;8055;51.930;8.840;2024-02-15T00:20:28;15.10;;;11.60;;
15913;SDS011;8055;51.930;8.840;2024-02-15T00:22:54;15.52;;;11.35;;
15913;SDS011;8055;51.930;8.840;2024-02-15T00:25:21;17.17;;;11.60;;
15913;SDS011;8055;51.930;8.840;2024-02-15T00:27:46;17.42;;;12.93;;
15913;SDS011;8055;51.930;8.840;2024-02-15T00:30:12;17.17;;;11.35;;
15913;SDS011;8055;51.930;8.840;2024-02-15T00:32:37;17.25;;;12.10;;
15913;SDS011;8055;51.930;8.840;2024-02-15T00:35:03;16.08;;;11.70;;
15913;SDS011;8055;51.930;8.840;2024-02-15T00:37:34;15.05;;;10.52;;
15913;SDS011;8055;51.930;8.840;2024-02-15T00:40:00;14.55;;;9.82;;
15913;SDS011;8055;51.930;8.840;2024-02-15T00:42:25;13.35;;;10.20;;
15913;SDS011;8055;51.930;8.840;2024-02-15T00:44:51;14.48;;;10.32;;
15913;SDS011;8055;51.930;8.840;2024-02-15T00:47:16;14.45;;;10.85;;
15913;SDS011;8055;51.930;8.840;2024-02-15T00:49:44;13.27;;;10.88;;
15913;SDS011;8055;51.930;8.840;2024-02-15T00:52:10;14.75;;;10.40;;
15913;SDS011;8055;51.930;8.840;2024-02-15T00:54:35;13.10;;;9.85;;
15913;SDS011;8055;51.930;8.840;2024-02-15T00:57:04;14.60;;;9.98;;
15913;SDS011;8055;51.930;8.840;2024-02-15T00:59:30;11.25;;;9.27;;
15913;SDS011;8055;51.930;8.840;2024-02-15T01:01:55;10.32;;;7.78;;
15913;SDS011;8055;51.930;8.840;2024-02-15T01:04:20;10.05;;;7.53;;
15913;SDS011;8055;51.930;8.840;2024-02-15T01:06:46;9.05;;;7.35;;
15913;SDS011;8055;51.930;8.840;2024-02-15T01:09:12;10.88;;;7.13;;
15913;SDS011;8055;51.930;8.840;2024-02-15T01:11:38;10.25;;;7.45;;
15913;SDS011;8055;51.930;8.840;2024-02-15T01:14:03;8.10;;;7.00;;
15913;SDS011;8055;51.930;8.840;2024-02-15T01:16:28;8.60;;;7.28;;
15913;SDS011;8055;51.930;8.840;2024-02-15T01:18:54;9.77;;;8.50;;
15913;SDS011;8055;51.930;8.840;2024-02-15T01:21:20;10.27;;;7.82;;
15913;SDS011;8055;51.930;8.840;2024-02-15T01:23:47;10.00;;;7.82;;
15913;SDS011;8055;51.930;8.840;2024-02-15T01:26:12;9.40;;;7.47;;
15913;SDS011;8055;51.930;8.840;2024-02-15T01:28:39;9.32;;;7.70;;
15913;SDS011;8055;51.930;8.840;2024-02-15T01:31:08;10.15;;;8.07;;
15913;SDS011;8055;51.930;8.840;2024-02-15T01:33:37;9.90;;;6.93;;
15913;SDS011;8055;51.930;8.840;2024-02-15T01:36:03;8.98;;;6.63;;
15913;SDS011;8055;51.930;8.840;2024-02-15T01:38:29;6.93;;;5.97;;
15913;SDS011;8055;51.930;8.840;2024-02-15T01:40:54;7.82;;;6.38;;
15913;SDS011;8055;51.930;8.840;2024-02-15T01:43:20;7.90;;;6.55;;
15913;SDS011;8055;51.930;8.840;2024-02-15T01:45:45;10.13;;;6.90;;
15913;SDS011;8055;51.930;8.840;2024-02-15T01:48:12;7.68;;;6.60;;
15913;SDS011;8055;51.930;8.840;2024-02-15T01:50:39;9.25;;;7.45;;
15913;SDS011;8055;51.930;8.840;2024-02-15T01:53:06;8.77;;;7.70;;
15913;SDS011;8055;51.930;8.840;2024-02-15T01:55:33;9.02;;;6.85;;
15913;SDS011;8055;51.930;8.840;2024-02-15T01:58:00;9.38;;;6.97;;
15913;SDS011;8055;51.930;8.840;2024-02-15T02:00:26;8.88;;;6.95;;
15913;SDS011;8055;51.930;8.840;2024-02-15T02:02:51;8.85;;;6.82;;
15913;SDS011;8055;51.930;8.840;2024-02-15T02:05:19;8.18;;;6.72;;
15913;SDS011;8055;51.930;8.840;2024-02-15T02:07:44;8.48;;;6.65;;
15913;SDS011;8055;51.930;8.840;2024-02-15T02:10:10;8.75;;;6.38;;
15913;SDS011;8055;51.930;8.840;2024-02-15T02:12:37;6.80;;;5.80;;
15913;SDS011;8055;51.930;8.840;2024-02-15T02:15:05;5.45;;;4.53;;
15913;SDS011;8055;51.930;8.840;2024-02-15T02:17:31;6.38;;;5.15;;
15913;SDS011;8055;51.930;8.840;2024-02-15T02:19:58;6.07;;;4.90;;
15913;SDS011;8055;51.930;8.840;2024-02-15T02:22:23;6.88;;;5.70;;
15913;SDS011;8055;51.930;8.840;2024-02-15T02:25:22;6.45;;;5.35;;
15913;SDS011;8055;51.930;8.840;2024-02-15T02:27:41;9.18;;;6.40;;
15913;SDS011;8055;51.930;8.840;2024-02-15T02:30:12;7.70;;;6.75;;
15913;SDS011;8055;51.930;8.840;2024-02-15T02:32:47;12.40;;;8.95;;
15913;SDS011;8055;51.930;8.840;2024-02-15T02:35:13;11.18;;;8.15;;
15913;SDS011;8055;51.930;8.840;2024-02-15T02:37:41;13.50;;;9.23;;
15913;SDS011;8055;51.930;8.840;2024-02-15T02:40:07;11.50;;;9.35;;
15913;SDS011;8055;51.930;8.840;2024-02-15T02:42:36;12.63;;;9.65;;
15913;SDS011;8055;51.930;8.840;2024-02-15T02:45:12;13.07;;;9.68;;
15913;SDS011;8055;51.930;8.840;2024-02-15T02:47:37;12.80;;;9.93;;
15913;SDS011;8055;51.930;8.840;2024-02-15T02:50:03;14.85;;;10.30;;
15913;SDS011;8055;51.930;8.840;2024-02-15T02:52:28;14.55;;;10.90;;
15913;SDS011;8055;51.930;8.840;2024-02-15T02:54:54;20.98;;;12.80;;
15913;SDS011;8055;51.930;8.840;2024-02-15T02:57:19;15.95;;;12.00;;
15913;SDS011;8055;51.930;8.840;2024-02-15T02:59:44;18.02;;;12.40;;
15913;SDS011;8055;51.930;8.840;2024-02-15T03:02:10;16.08;;;11.65;;
15913;SDS011;8055;51.930;8.840;2024-02-15T03:04:35;17.15;;;11.85;;
15913;SDS011;8055;51.930;8.840;2024-02-15T03:07:01;16.08;;;11.40;;
15913;SDS011;8055;51.930;8.840;2024-02-15T03:09:26;13.63;;;10.25;;
15913;SDS011;8055;51.930;8.840;2024-02-15T03:11:54;14.25;;;10.55;;
15913;SDS011;8055;51.930;8.840;2024-02-15T03:14:20;13.15;;;8.77;;
15913;SDS011;8055;51.930;8.840;2024-02-15T03:16:45;12.70;;;9.77;;
15913;SDS011;8055;51.930;8.840;2024-02-15T03:19:11;12.25;;;9.80;;
15913;SDS011;8055;51.930;8.840;2024-02-15T03:21:37;12.07;;;8.73;;
15913;SDS011;8055;51.930;8.840;2024-02-15T03:24:02;11.40;;;7.93;;
15913;SDS011;8055;51.930;8.840;2024-02-15T03:26:31;11.93;;;9.07;;
15913;SDS011;8055;51.930;8.840;2024-02-15T03:29:07;12.45;;;9.75;;
15913;SDS011;8055;51.930;8.840;2024-02-15T03:31:33;14.40;;;10.52;;
15913;SDS011;8055;51.930;8.840;2024-02-15T03:34:02;16.27;;;11.35;;
15913;SDS011;8055;51.930;8.840;2024-02-15T03:36:28;17.20;;;12.82;;
15913;SDS011;8055;51.930;8.840;2024-02-15T03:38:54;24.00;;;13.50;;
15913;SDS011;8055;51.930;8.840;2024-02-15T03:41:20;21.17;;;14.77;;
15913;SDS011;8055;51.930;8.840;2024-02-15T03:43:45;20.52;;;14.38;;
15913;SDS011;8055;51.930;8.840;2024-02-15T03:46:12;23.92;;;16.45;;
15913;SDS011;8055;51.930;8.840;2024-02-15T03:48:40;22.60;;;15.32;;
15913;SDS011;8055;51.930;8.840;2024-02-15T03:51:09;20.98;;;14.98;;
15913;SDS011;8055;51.930;8.840;2024-02-15T03:53:34;23.05;;;16.13;;
15913;SDS011;8055;51.930;8.840;2024-02-15T03:56:03;24.58;;;17.77;;
15913;SDS011;8055;51.930;8.840;2024-02-15T03:58:29;29.60;;;18.65;;
15913;SDS011;8055;51.930;8.840;2024-02-15T04:00:57;27.17;;;17.67;;
15913;SDS011;8055;51.930;8.840;2024-02-15T04:03:23;28.50;;;17.88;;
15913;SDS011;8055;51.930;8.840;2024-02-15T04:05:49;29.98;;;18.58;;
15913;SDS011;8055;51.930;8.840;2024-02-15T04:08:14;39.13;;;21.92;;
15913;SDS011;8055;51.930;8.840;2024-02-15T04:10:40;33.88;;;20.30;;
15913;SDS011;8055;51.930;8.840;2024-02-15T04:13:06;35.92;;;21.00;;
15913;SDS011;8055;51.930;8.840;2024-02-15T04:15:32;34.42;;;20.42;;
15913;SDS011;8055;51.930;8.840;2024-02-15T04:17:58;35.83;;;20.70;;
15913;SDS011;8055;51.930;8.840;2024-02-15T04:20:25;29.52;;;19.00;;
15913;SDS011;8055;51.930;8.840;2024-02-15T04:22:51;35.45;;;20.17;;
15913;SDS011;8055;51.930;8.840;2024-02-15T04:25:17;30.00;;;19.23;;
15913;SDS011;8055;51.930;8.840;2024-02-15T04:27:47;30.45;;;17.85;;
15913;SDS011;8055;51.930;8.840;2024-02-15T04:30:13;25.63;;;16.77;;
15913;SDS011;8055;51.930;8.840;2024-02-15T04:32:40;26.38;;;16.27;;
15913;SDS011;8055;51.930;8.840;2024-02-15T04:35:06;25.20;;;16.05;;
15913;SDS011;8055;51.930;8.840;2024-02-15T04:37:32;25.27;;;16.60;;
15913;SDS011;8055;51.930;8.840;2024-02-15T04:39:59;18.98;;;13.85;;
15913;SDS011;8055;51.930;8.840;2024-02-15T04:42:37;20.98;;;13.77;;
15913;SDS011;8055;51.930;8.840;2024-02-15T04:45:07;25.10;;;13.65;;
15913;SDS011;8055;51.930;8.840;2024-02-15T04:47:34;19.92;;;12.77;;
15913;SDS011;8055;51.930;8.840;2024-02-15T04:50:03;15.93;;;11.60;;
15913;SDS011;8055;51.930;8.840;2024-02-15T04:52:31;17.35;;;11.18;;
15913;SDS011;8055;51.930;8.840;2024-02-15T04:54:57;17.98;;;10.50;;
15913;SDS011;8055;51.930;8.840;2024-02-15T04:57:25;14.82;;;10.40;;
15913;SDS011;8055;51.930;8.840;2024-02-15T04:59:54;15.93;;;10.68;;
15913;SDS011;8055;51.930;8.840;2024-02-15T05:02:19;14.65;;;9.50;;
15913;SDS011;8055;51.930;8.840;2024-02-15T05:04:47;13.15;;;8.98;;
15913;SDS011;8055;51.930;8.840;2024-02-15T05:07:12;17.45;;;9.23;;
15913;SDS011;8055;51.930;8.840;2024-02-15T05:09:42;15.85;;;9.38;;
15913;SDS011;8055;51.930;8.840;2024-02-15T05:12:07;14.18;;;8.75;;
15913;SDS011;8055;51.930;8.840;2024-02-15T05:14:33;14.30;;;9.30;;
15913;SDS011;8055;51.930;8.840;2024-02-15T05:17:01;14.43;;;8.73;;
15913;SDS011;8055;51.930;8.840;2024-02-15T05:19:26;11.40;;;8.77;;
15913;SDS011;8055;51.930;8.840;2024-02-15T05:21:52;15.15;;;8.25;;
15913;SDS011;8055;51.930;8.840;2024-02-15T05:24:18;11.05;;;7.63;;
15913;SDS011;8055;51.930;8.840;2024-02-15T05:26:45;19.45;;;8.45;;
15913;SDS011;8055;51.930;8.840;2024-02-15T05:29:17;12.18;;;7.80;;
15913;SDS011;8055;51.930;8.840;2024-02-15T05:31:42;13.60;;;7.13;;
15913;SDS011;8055;51.930;8.840;2024-02-15T05:34:10;11.93;;;7.43;;
15913;SDS011;8055;51.930;8.840;2024-02-15T05:36:39;12.55;;;7.20;;
15913;SDS011;8055;51.930;8.840;2024-02-15T05:39:04;11.35;;;7.10;;
15913;SDS011;8055;51.930;8.840;2024-02-15T05:41:30;11.48;;;6.22;;
15913;SDS011;8055;51.930;8.840;2024-02-15T05:43:57;11.00;;;5.97;;
15913;SDS011;8055;51.930;8.840;2024-02-15T05:46:23;11.48;;;6.15;;
15913;SDS011;8055;51.930;8.840;2024-02-15T05:48:49;10.85;;;6.05;;
15913;SDS011;8055;51.930;8.840;2024-02-15T05:51:14;9.75;;;5.68;;
15913;SDS011;8055;51.930;8.840;2024-02-15T05:53:40;11.35;;;5.78;;
15913;SDS011;8055;51.930;8.840;2024-02-15T05:56:06;8.25;;;5.32;;
15913;SDS011;8055;51.930;8.840;2024-02-15T05:58:32;7.65;;;5.47;;
15913;SDS011;8055;51.930;8.840;2024-02-15T06:00:59;9.05;;;5.15;;
15913;SDS011;8055;51.930;8.840;2024-02-15T06:03:30;10.55;;;5.65;;
15913;SDS011;8055;51.930;8.840;2024-02-15T06:06:01;11.05;;;5.40;;
15913;SDS011;8055;51.930;8.840;2024-02-15T06:08:31;14.27;;;6.03;;
15913;SDS011;8055;51.930;8.840;2024-02-15T06:10:57;10.75;;;6.78;;
15913;SDS011;8055;51.930;8.840;2024-02-15T06:13:23;12.95;;;5.88;;
15913;SDS011;8055;51.930;8.840;2024-02-15T06:15:49;12.25;;;6.32;;
15913;SDS011;8055;51.930;8.840;2024-02-15T06:18:22;10.35;;;5.55;;
15913;SDS011;8055;51.930;8.840;2024-02-15T06:20:55;10.88;;;6.30;;
15913;SDS011;8055;51.930;8.840;2024-02-15T06:23:27;9.13;;;5.95;;
15913;SDS011;8055;51.930;8.840;2024-02-15T06:25:53;14.38;;;6.25;;
15913;SDS011;8055;51.930;8.840;2024-02-15T06:28:21;13.85;;;6.63;;
15913;SDS011;8055;51.930;8.840;2024-02-15T06:31:07;10.95;;;6.15;;
15913;SDS011;8055;51.930;8.840;2024-02-15T06:33:51;10.50;;;5.68;;
15913;SDS011;8055;51.930;8.840;2024-02-15T06:36:39;11.35;;;6.68;;
15913;SDS011;8055;51.930;8.840;2024-02-15T06:39:23;11.70;;;6.50;;
15913;SDS011;8055;51.930;8.840;2024-02-15T06:42:09;9.85;;;5.95;;
15913;SDS011;8055;51.930;8.840;2024-02-15T06:44:46;12.55;;;7.05;;
15913;SDS011;8055;51.930;8.840;2024-02-15T06:47:13;13.55;;;6.93;;
15913;SDS011;8055;51.930;8.840;2024-02-15T06:49:42;9.27;;;6.38;;
15913;SDS011;8055;51.930;8.840;2024-02-15T06:52:09;14.50;;;6.95;;
15913;SDS011;8055;51.930;8.840;2024-02-15T06:54:39;11.23;;;7.30;;
15913;SDS011;8055;51.930;8.840;2024-02-15T06:57:05;10.85;;;5.93;;
15913;SDS011;8055;51.930;8.840;2024-02-15T06:59:30;7.18;;;5.20;;
15913;SDS011;8055;51.930;8.840;2024-02-15T07:01:57;8.27;;;4.97;;
15913;SDS011;8055;51.930;8.840;2024-02-15T07:04:23;9.50;;;5.90;;
15913;SDS011;8055;51.930;8.840;2024-02-15T07:06:50;9.25;;;5.00;;
15913;SDS011;8055;51.930;8.840;2024-02-15T07:09:19;8.90;;;4.60;;
15913;SDS011;8055;51.930;8.840;2024-02-15T07:11:45;7.72;;;4.32;;
15913;SDS011;8055;51.930;8.840;2024-02-15T07:14:11;7.72;;;4.30;;
15913;SDS011;8055;51.930;8.840;2024-02-15T07:16:37;11.88;;;4.32;;
15913;SDS011;8055;51.930;8.840;2024-02-15T07:19:03;8.43;;;4.50;;
15913;SDS011;8055;51.930;8.840;2024-02-15T07:21:29;7.57;;;4.28;;
15913;SDS011;8055;51.930;8.840;2024-02-15T07:23:55;6.05;;;3.88;;
15913;SDS011;8055;51.930;8.840;2024-02-15T07:26:21;9.60;;;4.00;;
15913;SDS011;8055;51.930;8.840;2024-02-15T07:28:59;8.15;;;4.05;;
15913;SDS011;8055;51.930;8.840;2024-02-15T07:31:28;11.07;;;4.10;;
15913;SDS011;8055;51.930;8.840;2024-02-15T07:33:56;8.87;;;4.13;;
15913;SDS011;8055;51.930;8.840;2024-02-15T07:36:23;7.68;;;3.92;;
15913;SDS011;8055;51.930;8.840;2024-02-15T07:38:49;7.90;;;3.90;;
15913;SDS011;8055;51.930;8.840;2024-02-15T07:41:18;9.57;;;3.90;;
15913;SDS011;8055;51.930;8.840;2024-02-15T07:43:47;7.30;;;3.45;;
15913;SDS011;8055;51.930;8.840;2024-02-15T07:46:13;8.52;;;3.78;;
15913;SDS011;8055;51.930;8.840;2024-02-15T07:48:42;5.55;;;3.30;;
15913;SDS011;8055;51.930;8.840;2024-02-15T07:51:11;7.40;;;4.03;;
15913;SDS011;8055;51.930;8.840;2024-02-15T07:53:37;5.20;;;3.47;;
15913;SDS011;8055;51.930;8.840;2024-02-15T07:56:04;5.35;;;3.80;;
15913;SDS011;8055;51.930;8.840;2024-02-15T07:58:30;8.55;;;3.80;;
15913;SDS011;8055;51.930;8.840;2024-02-15T08:00:56;6.72;;;3.42;;
15913;SDS011;8055;51.930;8.840;2024-02-15T08:03:21;8.23;;;3.67;;
15913;SDS011;8055;51.930;8.840;2024-02-15T08:05:47;11.43;;;3.78;;
15913;SDS011;8055;51.930;8.840;2024-02-15T08:08:12;7.47;;;3.58;;
15913;SDS011;8055;51.930;8.840;2024-02-15T08:10:38;6.00;;;3.22;;
15913;SDS011;8055;51.930;8.840;2024-02-15T08:13:04;4.43;;;3.10;;
15913;SDS011;8055;51.930;8.840;2024-02-15T08:15:30;7.72;;;3.20;;
15913;SDS011;8055;51.930;8.840;2024-02-15T08:17:55;6.82;;;3.70;;
15913;SDS011;8055;51.930;8.840;2024-02-15T08:20:20;6.68;;;3.70;;
15913;SDS011;8055;51.930;8.840;2024-02-15T08:22:46;4.82;;;3.13;;
15913;SDS011;8055;51.930;8.840;2024-02-15T08:25:13;7.57;;;3.47;;
15913;SDS011;8055;51.930;8.840;2024-02-15T08:27:41;6.22;;;3.10;;
15913;SDS011;8055;51.930;8.840;2024-02-15T08:30:12;9.80;;;3.00;;
15913;SDS011;8055;51.930;8.840;2024-02-15T08:32:39;4.65;;;2.80;;
15913;SDS011;8055;51.930;8.840;2024-02-15T08:35:08;8.18;;;2.85;;
15913;SDS011;8055;51.930;8.840;2024-02-15T08:37:35;6.63;;;2.78;;
15913;SDS011;8055;51.930;8.840;2024-02-15T08:40:02;4.82;;;2.80;;
15913;SDS011;8055;51.930;8.840;2024-02-15T08:42:29;4.13;;;2.67;;
15913;SDS011;8055;51.930;8.840;2024-02-15T08:44:55;7.57;;;2.97;;
15913;SDS011;8055;51.930;8.840;2024-02-15T08:47:20;7.65;;;2.90;;
15913;SDS011;8055;51.930;8.840;2024-02-15T08:49:46;9.80;;;3.10;;
15913;SDS011;8055;51.930;8.840;2024-02-15T08:52:11;9.07;;;3.25;;
15913;SDS011;8055;51.930;8.840;2024-02-15T08:54:37;7.97;;;3.00;;
15913;SDS011;8055;51.930;8.840;2024-02-15T08:57:06;6.78;;;3.10;;
15913;SDS011;8055;51.930;8.840;2024-02-15T08:59:31;7.53;;;2.90;;
15913;SDS011;8055;51.930;8.840;2024-02-15T09:01:57;6.05;;;2.70;;
15913;SDS011;8055;51.930;8.840;2024-02-15T09:04:22;6.32;;;2.72;;
15913;SDS011;8055;51.930;8.840;2024-02-15T09:06:49;6.28;;;2.85;;
15913;SDS011;8055;51.930;8.840;2024-02-15T09:09:16;5.45;;;2.70;;
15913;SDS011;8055;51.930;8.840;2024-02-15T09:11:41;9.80;;;2.80;;
15913;SDS011;8055;51.930;8.840;2024-02-15T09:14:07;5.95;;;2.88;;
15913;SDS011;8055;51.930;8.840;2024-02-15T09:16:35;7.82;;;2.70;;
15913;SDS011;8055;51.930;8.840;2024-02-15T09:19:01;7.60;;;3.15;;
15913;SDS011;8055;51.930;8.840;2024-02-15T09:21:27;8.63;;;3.05;;
15913;SDS011;8055;51.930;8.840;2024-02-15T09:23:54;6.45;;;2.90;;
15913;SDS011;8055;51.930;8.840;2024-02-15T09:26:19;8.75;;;3.13;;
15913;SDS011;8055;51.930;8.840;2024-02-15T09:28:45;5.88;;;2.50;;
15913;SDS011;8055;51.930;8.840;2024-02-15T09:31:14;6.57;;;3.00;;
15913;SDS011;8055;51.930;8.840;2024-02-15T09:33:40;7.72;;;3.38;;
15913;SDS011;8055;51.930;8.840;2024-02-15T09:36:05;9.05;;;3.17;;
15913;SDS011;8055;51.930;8.840;2024-02-15T09:38:31;8.43;;;3.33;;
15913;SDS011;8055;51.930;8.840;2024-02-15T09:40:56;5.97;;;2.67;;
15913;SDS011;8055;51.930;8.840;2024-02-15T09:43:22;6.38;;;2.90;;
15913;SDS011;8055;51.930;8.840;2024-02-15T09:45:51;6.88;;;3.05;;
15913;SDS011;8055;51.930;8.840;2024-02-15T09:48:17;7.68;;;3.15;;
15913;SDS011;8055;51.930;8.840;2024-02-15T09:50:43;6.28;;;2.50;;
15913;SDS011;8055;51.930;8.840;2024-02-15T09:53:11;5.05;;;2.78;;
15913;SDS011;8055;51.930;8.840;2024-02-15T09:55:39;5.40;;;3.00;;
15913;SDS011;8055;51.930;8.840;2024-02-15T09:58:07;6.22;;;3.22;;
15913;SDS011;8055;51.930;8.840;2024-02-15T10:00:34;4.50;;;2.60;;
15913;SDS011;8055;51.930;8.840;2024-02-15T10:03:00;4.65;;;2.50;;
15913;SDS011;8055;51.930;8.840;2024-02-15T10:05:27;8.15;;;2.40;;
15913;SDS011;8055;51.930;8.840;2024-02-15T10:07:53;3.95;;;2.33;;
15913;SDS011;8055;51.930;8.840;2024-02-15T10:12:51;6.38;;;2.22;;
15913;SDS011;8055;51.930;8.840;2024-02-15T10:15:34;6.38;;;2.45;;
15913;SDS011;8055;51.930;8.840;2024-02-15T10:18:01;6.22;;;2.28;;
15913;SDS011;8055;51.930;8.840;2024-02-15T10:20:28;7.95;;;2.70;;
15913;SDS011;8055;51.930;8.840;2024-02-15T10:25:28;6.20;;;2.28;;
15913;SDS011;8055;51.930;8.840;2024-02-15T10:28:14;5.30;;;2.50;;
15913;SDS011;8055;51.930;8.840;2024-02-15T10:30:48;11.15;;;2.90;;
15913;SDS011;8055;51.930;8.840;2024-02-15T10:33:28;6.53;;;3.00;;
15913;SDS011;8055;51.930;8.840;2024-02-15T10:36:07;7.28;;;2.67;;
15913;SDS011;8055;51.930;8.840;2024-02-15T10:38:33;6.78;;;2.83;;
15913;SDS011;8055;51.930;8.840;2024-02-15T10:41:08;7.53;;;3.83;;
15913;SDS011;8055;51.930;8.840;2024-02-15T10:43:33;7.55;;;3.40;;
15913;SDS011;8055;51.930;8.840;2024-02-15T10:46:00;5.43;;;2.92;;
15913;SDS011;8055;51.930;8.840;2024-02-15T10:48:26;5.65;;;2.65;;
15913;SDS011;8055;51.930;8.840;2024-02-15T10:50:53;9.45;;;2.85;;
15913;SDS011;8055;51.930;8.840;2024-02-15T10:53:27;6.70;;;2.30;;
15913;SDS011;8055;51.930;8.840;2024-02-15T11:01:45;6.45;;;3.28;;
15913;SDS011;8055;51.930;8.840;2024-02-15T11:04:14;6.65;;;2.78;;
15913;SDS011;8055;51.930;8.840;2024-02-15T11:06:40;7.20;;;2.80;;
15913;SDS011;8055;51.930;8.840;2024-02-15T11:09:09;6.40;;;2.55;;
15913;SDS011;8055;51.930;8.840;2024-02-15T11:11:37;6.90;;;2.85;;
15913;SDS011;8055;51.930;8.840;2024-02-15T11:16:52;3.33;;;2.00;;
15913;SDS011;8055;51.930;8.840;2024-02-15T11:22:08;3.78;;;2.13;;
15913;SDS011;8055;51.930;8.840;2024-02-15T11:24:35;5.55;;;2.65;;
15913;SDS011;8055;51.930;8.840;2024-02-15T11:27:02;6.90;;;2.58;;
15913;SDS011;8055;51.930;8.840;2024-02-15T11:35:03;4.20;;;2.15;;
15913;SDS011;8055;51.930;8.840;2024-02-15T11:43:06;4.95;;;2.05;;
15913;SDS011;8055;51.930;8.840;2024-02-15T11:45:32;9.30;;;3.30;;
15913;SDS011;8055;51.930;8.840;2024-02-15T11:48:09;3.58;;;2.25;;
15913;SDS011;8055;51.930;8.840;2024-02-15T11:50:38;5.40;;;2.50;;
15913;SDS011;8055;51.930;8.840;2024-02-15T11:53:05;5.82;;;2.67;;
15913;SDS011;8055;51.930;8.840;2024-02-15T11:55:35;3.80;;;2.10;;
15913;SDS011;8055;51.930;8.840;2024-02-15T11:58:02;5.28;;;2.55;;
15913;SDS011;8055;51.930;8.840;2024-02-15T12:00:34;5.05;;;2.30;;
15913;SDS011;8055;51.930;8.840;2024-02-15T12:03:18;6.82;;;2.35;;
15913;SDS011;8055;51.930;8.840;2024-02-15T12:06:03;6.57;;;2.40;;
15913;SDS011;8055;51.930;8.840;2024-02-15T12:08:48;4.68;;;2.03;;
15913;SDS011;8055;51.930;8.840;2024-02-15T12:11:33;5.78;;;2.13;;
15913;SDS011;8055;51.930;8.840;2024-02-15T12:14:18;5.15;;;2.03;;
15913;SDS011;8055;51.930;8.840;2024-02-15T12:17:03;6.20;;;2.28;;
15913;SDS011;8055;51.930;8.840;2024-02-15T12:19:55;3.60;;;1.63;;
15913;SDS011;8055;51.930;8.840;2024-02-15T12:22:25;3.92;;;1.65;;
15913;SDS011;8055;51.930;8.840;2024-02-15T12:24:58;4.00;;;2.00;;
15913;SDS011;8055;51.930;8.840;2024-02-15T12:27:25;4.50;;;1.92;;
15913;SDS011;8055;51.930;8.840;2024-02-15T12:29:58;6.28;;;2.00;;
15913;SDS011;8055;51.930;8.840;2024-02-15T12:32:25;5.18;;;2.10;;
15913;SDS011;8055;51.930;8.840;2024-02-15T12:35:09;3.97;;;1.90;;
15913;SDS011;8055;51.930;8.840;2024-02-15T12:37:40;6.22;;;1.75;;
15913;SDS011;8055;51.930;8.840;2024-02-15T12:40:10;6.43;;;1.95;;
15913;SDS011;8055;51.930;8.840;2024-02-15T12:42:44;4.72;;;1.60;;
15913;SDS011;8055;51.930;8.840;2024-02-15T12:45:18;5.13;;;2.53;;
15913;SDS011;8055;51.930;8.840;2024-02-15T12:47:54;4.03;;;1.75;;
15913;SDS011;8055;51.930;8.840;2024-02-15T12:50:21;5.82;;;2.13;;
15913;SDS011;8055;51.930;8.840;2024-02-15T12:52:49;5.00;;;1.73;;
15913;SDS011;8055;51.930;8.840;2024-02-15T12:55:18;8.68;;;2.10;;
15913;SDS011;8055;51.930;8.840;2024-02-15T12:57:45;6.38;;;1.52;;
15913;SDS011;8055;51.930;8.840;2024-02-15T13:00:15;2.08;;;1.30;;
15913;SDS011;8055;51.930;8.840;2024-02-15T13:02:50;5.35;;;2.15;;
15913;SDS011;8055;51.930;8.840;2024-02-15T13:05:17;5.90;;;1.80;;
15913;SDS011;8055;51.930;8.840;2024-02-15T13:07:49;7.40;;;2.58;;
15913;SDS011;8055;51.930;8.840;2024-02-15T13:10:15;7.20;;;1.83;;
15913;SDS011;8055;51.930;8.840;2024-02-15T13:12:41;3.15;;;1.67;;
15913;SDS011;8055;51.930;8.840;2024-02-15T13:15:09;5.47;;;1.65;;
15913;SDS011;8055;51.930;8.840;2024-02-15T13:17:39;5.00;;;1.95;;
15913;SDS011;8055;51.930;8.840;2024-02-15T13:20:06;4.38;;;1.70;;
15913;SDS011;8055;51.930;8.840;2024-02-15T13:22:36;4.00;;;1.83;;
15913;SDS011;8055;51.930;8.840;2024-02-15T13:25:03;5.25;;;2.03;;
15913;SDS011;8055;51.930;8.840;2024-02-15T13:27:35;6.53;;;2.00;;
15913;SDS011;8055;51.930;8.840;2024-02-15T13:30:03;3.90;;;1.50;;
15913;SDS011;8055;51.930;8.840;2024-02-15T13:32:36;4.93;;;1.50;;
15913;SDS011;8055;51.930;8.840;2024-02-15T13:35:03;3.58;;;1.60;;
15913;SDS011;8055;51.930;8.840;2024-02-15T13:37:37;3.35;;;1.95;;
15913;SDS011;8055;51.930;8.840;2024-02-15T13:40:12;4.57;;;2.17;;
15913;SDS011;8055;51.930;8.840;2024-02-15T13:42:44;15.88;;;5.13;;
15913;SDS011;8055;51.930;8.840;2024-02-15T13:45:18;2.97;;;1.70;;
15913;SDS011;8055;51.930;8.840;2024-02-15T13:47:49;5.47;;;1.60;;
15913;SDS011;8055;51.930;8.840;2024-02-15T13:50:15;5.75;;;2.65;;
15913;SDS011;8055;51.930;8.840;2024-02-15T13:52:45;5.32;;;2.40;;
15913;SDS011;8055;51.930;8.840;2024-02-15T13:55:12;6.43;;;1.65;;
15913;SDS011;8055;51.930;8.840;2024-02-15T13:57:41;4.00;;;1.50;;
15913;SDS011;8055;51.930;8.840;2024-02-15T14:00:09;4.80;;;1.65;;
15913;SDS011;8055;51.930;8.840;2024-02-15T14:02:42;4.57;;;2.03;;
15913;SDS011;8055;51.930;8.840;2024-02-15T14:05:08;6.78;;;1.73;;
15913;SDS011;8055;51.930;8.840;2024-02-15T14:07:36;3.50;;;1.85;;
15913;SDS011;8055;51.930;8.840;2024-02-15T14:10:03;6.05;;;2.13;;
15913;SDS011;8055;51.930;8.840;2024-02-15T14:12:29;4.03;;;1.95;;
15913;SDS011;8055;51.930;8.840;2024-02-15T14:14:55;6.75;;;2.38;;
15913;SDS011;8055;51.930;8.840;2024-02-15T14:17:21;5.10;;;2.13;;
15913;SDS011;8055;51.930;8.840;2024-02-15T14:19:46;4.85;;;2.00;;
15913;SDS011;8055;51.930;8.840;2024-02-15T14:22:12;4.10;;;2.03;;
15913;SDS011;8055;51.930;8.840;2024-02-15T14:24:41;3.88;;;1.80;;
15913;SDS011;8055;51.930;8.840;2024-02-15T14:27:08;4.03;;;1.77;;
15913;SDS011;8055;51.930;8.840;2024-02-15T14:29:34;2.15;;;1.50;;
15913;SDS011;8055;51.930;8.840;2024-02-15T14:32:03;2.63;;;1.50;;
15913;SDS011;8055;51.930;8.840;2024-02-15T14:34:48;3.13;;;1.33;;
15913;SDS011;8055;51.930;8.840;2024-02-15T14:37:14;3.70;;;1.30;;
15913;SDS011;8055;51.930;8.840;2024-02-15T14:39:42;5.13;;;1.90;;
15913;SDS011;8055;51.930;8.840;2024-02-15T14:42:07;3.35;;;1.73;;
15913;SDS011;8055;51.930;8.840;2024-02-15T14:44:33;4.60;;;1.63;;
15913;SDS011;8055;51.930;8.840;2024-02-15T14:46:59;5.88;;;1.63;;
15913;SDS011;8055;51.930;8.840;2024-02-15T14:49:24;3.97;;;1.48;;
15913;SDS011;8055;51.930;8.840;2024-02-15T14:51:50;4.97;;;2.00;;
15913;SDS011;8055;51.930;8.840;2024-02-15T14:54:16;4.38;;;1.98;;
15913;SDS011;8055;51.930;8.840;2024-02-15T14:56:43;4.38;;;1.83;;
15913;SDS011;8055;51.930;8.840;2024-02-15T14:59:09;4.75;;;1.85;;
15913;SDS011;8055;51.930;8.840;2024-02-15T15:01:36;5.13;;;1.92;;
15913;SDS011;8055;51.930;8.840;2024-02-15T15:04:02;6.93;;;1.70;;
15913;SDS011;8055;51.930;8.840;2024-02-15T15:06:31;3.95;;;1.50;;
15913;SDS011;8055;51.930;8.840;2024-02-15T15:09:15;2.28;;;1.70;;
15913;SDS011;8055;51.930;8.840;2024-02-15T15:11:59;3.67;;;1.75;;
15913;SDS011;8055;51.930;8.840;2024-02-15T15:14:43;3.53;;;1.70;;
15913;SDS011;8055;51.930;8.840;2024-02-15T15:17:11;3.72;;;2.03;;
15913;SDS011;8055;51.930;8.840;2024-02-15T15:19:37;7.13;;;2.28;;
15913;SDS011;8055;51.930;8.840;2024-02-15T15:22:03;4.93;;;2.17;;
15913;SDS011;8055;51.930;8.840;2024-02-15T15:24:30;5.10;;;2.33;;
15913;SDS011;8055;51.930;8.840;2024-02-15T15:26:57;5.60;;;2.35;;